Time;durP1;ratioP1;P1;durP2;ratioP2;P2;SDS_P1;SDS_P2;PMS_P1;PMS_P2;Temp;Humidity;BMP_temperature;BMP_pressure;BME280_temperature;BME280_humidity;BME280_pressure;Samples;Min_cycle;Max_cycle;Signal;HPM_P1;HPM_P2
2023/12/10 00:00:09;;;;;;;30.65;5.82;;;;;;;;;;5071922;28;20395;-78
2023/12/10 00:02:35;;;;;;;31.60;5.70;;;;;;;;;;5072521;28;20412;-80
2023/12/10 00:05:01;;;;;;;25.75;5.25;;;;;;;;;;5071720;28;20465;-80
2023/12/10 00:07:28;;;;;;;30.77;5.83;;;;;;;;;;5055601;28;21012;-80
2023/12/10 00:09:54;;;;;;;30.58;5.82;;;;;;;;;;5072062;28;20410;-81
2023/12/10 00:12:20;;;;;;;24.70;5.43;;;;;;;;;;5072724;28;20404;-80
2023/12/10 00:14:52;;;;;;;24.60;5.15;;;;;;;;;;5078941;28;20402;-80
2023/12/10 00:17:18;;;;;;;28.35;5.72;;;;;;;;;;5073043;28;20411;-80
2023/12/10 00:19:44;;;;;;;25.38;5.47;;;;;;;;;;5088653;28;20404;-80
2023/12/10 00:22:11;;;;;;;35.00;6.50;;;;;;;;;;5104673;28;20403;-80
2023/12/10 00:24:37;;;;;;;29.52;6.63;;;;;;;;;;5071848;28;20425;-80
2023/12/10 00:27:03;;;;;;;30.97;6.17;;;;;;;;;;5071804;28;20396;-79
2023/12/10 00:29:29;;;;;;;23.77;5.18;;;;;;;;;;5071365;28;20482;-80
2023/12/10 00:31:55;;;;;;;31.50;5.70;;;;;;;;;;5071929;28;20415;-80
2023/12/10 00:34:22;;;;;;;30.27;5.15;;;;;;;;;;5105387;28;20408;-80
2023/12/10 00:36:48;;;;;;;27.83;5.40;;;;;;;;;;5072160;28;20407;-80
2023/12/10 00:39:14;;;;;;;25.67;4.90;;;;;;;;;;5070589;28;20427;-80
2023/12/10 00:41:40;;;;;;;26.03;4.83;;;;;;;;;;5055198;28;20471;-80
2023/12/10 00:44:06;;;;;;;21.75;5.10;;;;;;;;;;5072241;28;20396;-80
2023/12/10 00:46:32;;;;;;;20.83;4.45;;;;;;;;;;5050894;28;20432;-79
2023/12/10 00:48:58;;;;;;;21.00;4.22;;;;;;;;;;5061094;28;20407;-79
2023/12/10 00:51:24;;;;;;;19.80;4.28;;;;;;;;;;5054085;28;20407;-80
2023/12/10 00:53:50;;;;;;;22.63;4.25;;;;;;;;;;5071872;28;20855;-80
2023/12/10 00:56:17;;;;;;;24.70;5.63;;;;;;;;;;5070192;28;20435;-80
2023/12/10 00:58:43;;;;;;;28.35;5.65;;;;;;;;;;5071445;28;20783;-80
2023/12/10 01:01:10;;;;;;;19.98;5.25;;;;;;;;;;5070772;28;20960;-79
2023/12/10 01:03:36;;;;;;;25.05;5.25;;;;;;;;;;5071371;28;20412;-80
2023/12/10 01:06:06;;;;;;;28.33;5.63;;;;;;;;;;5071423;28;20399;-80
2023/12/10 01:08:32;;;;;;;26.23;5.13;;;;;;;;;;5054957;28;20407;-81
2023/12/10 01:10:59;;;;;;;27.58;5.97;;;;;;;;;;5088952;28;20798;-80
2023/12/10 01:13:25;;;;;;;22.90;5.10;;;;;;;;;;5054123;28;20764;-80
2023/12/10 01:15:52;;;;;;;29.48;5.50;;;;;;;;;;5038597;28;20399;-80
2023/12/10 01:18:18;;;;;;;31.17;6.65;;;;;;;;;;5070825;28;20455;-80
2023/12/10 01:20:44;;;;;;;21.15;5.38;;;;;;;;;;5070699;28;20402;-81
2023/12/10 01:23:10;;;;;;;27.42;5.30;;;;;;;;;;5087509;28;20407;-82
2023/12/10 01:25:36;;;;;;;27.15;5.03;;;;;;;;;;5054403;28;20400;-82
2023/12/10 01:28:02;;;;;;;27.33;5.03;;;;;;;;;;5054236;28;20994;-81
2023/12/10 01:30:29;;;;;;;29.92;5.32;;;;;;;;;;5037576;28;20768;-82
2023/12/10 01:32:58;;;;;;;29.63;6.10;;;;;;;;;;5087532;28;20403;-82
2023/12/10 01:35:25;;;;;;;27.67;5.28;;;;;;;;;;5070522;28;20494;-82
2023/12/10 01:37:51;;;;;;;28.48;5.75;;;;;;;;;;5053874;28;20424;-82
2023/12/10 01:40:17;;;;;;;29.95;5.63;;;;;;;;;;5054319;28;20403;-81
2023/12/10 01:42:47;;;;;;;26.50;5.57;;;;;;;;;;5086518;28;20411;-81
2023/12/10 01:45:13;;;;;;;33.63;6.05;;;;;;;;;;5100808;28;20437;-80
2023/12/10 01:47:40;;;;;;;32.42;5.72;;;;;;;;;;5070366;28;20404;-81
2023/12/10 01:50:08;;;;;;;32.90;5.43;;;;;;;;;;5065866;28;20515;-81
2023/12/10 01:52:35;;;;;;;30.90;5.60;;;;;;;;;;5087499;28;20403;-81
2023/12/10 01:55:03;;;;;;;30.33;6.07;;;;;;;;;;5037656;28;21021;-81
2023/12/10 01:57:30;;;;;;;32.80;5.95;;;;;;;;;;5070620;28;20406;-81
2023/12/10 01:59:58;;;;;;;29.63;5.57;;;;;;;;;;5070432;28;20400;-81
2023/12/10 02:02:24;;;;;;;27.75;5.15;;;;;;;;;;5067203;28;20495;-81
2023/12/10 02:04:53;;;;;;;29.20;6.30;;;;;;;;;;5086424;28;20725;-81
2023/12/10 02:07:20;;;;;;;34.10;6.20;;;;;;;;;;5070818;28;20756;-81
2023/12/10 02:09:46;;;;;;;34.47;6.60;;;;;;;;;;5069393;28;20407;-80
2023/12/10 02:12:12;;;;;;;31.13;5.88;;;;;;;;;;5070186;28;20407;-81
2023/12/10 02:14:39;;;;;;;29.27;5.95;;;;;;;;;;5075628;28;20402;-81
2023/12/10 02:17:05;;;;;;;26.67;6.35;;;;;;;;;;5103789;28;20467;-81
2023/12/10 02:19:31;;;;;;;25.10;5.90;;;;;;;;;;5048802;28;20938;-81
2023/12/10 02:21:59;;;;;;;30.33;6.63;;;;;;;;;;5070277;28;20399;-81
2023/12/10 02:24:33;;;;;;;32.40;6.10;;;;;;;;;;5104158;28;20414;-82
2023/12/10 02:26:59;;;;;;;33.25;5.70;;;;;;;;;;5043779;28;20400;-81
2023/12/10 02:29:25;;;;;;;31.27;6.15;;;;;;;;;;5053180;28;20399;-81
2023/12/10 02:31:51;;;;;;;30.25;5.43;;;;;;;;;;5069524;28;20462;-81
2023/12/10 02:34:17;;;;;;;31.70;5.70;;;;;;;;;;5069764;28;20403;-81
2023/12/10 02:36:43;;;;;;;30.27;5.80;;;;;;;;;;5068520;28;20419;-81
2023/12/10 02:39:10;;;;;;;33.70;6.20;;;;;;;;;;5066979;28;21009;-81
2023/12/10 02:41:37;;;;;;;31.38;5.88;;;;;;;;;;5086152;28;20403;-81
2023/12/10 02:44:03;;;;;;;29.65;5.60;;;;;;;;;;5052677;28;20399;-81
2023/12/10 02:46:29;;;;;;;27.23;5.40;;;;;;;;;;5036753;28;20902;-81
2023/12/10 02:48:55;;;;;;;30.80;5.82;;;;;;;;;;5087988;28;20490;-80
2023/12/10 02:51:21;;;;;;;25.63;5.33;;;;;;;;;;5073671;28;20450;-82
2023/12/10 02:53:47;;;;;;;31.65;5.65;;;;;;;;;;5072291;28;20427;-81
2023/12/10 02:56:13;;;;;;;26.77;4.75;;;;;;;;;;5056585;28;20418;-81
2023/12/10 02:58:39;;;;;;;27.27;5.25;;;;;;;;;;5073107;28;20423;-80
2023/12/10 03:01:05;;;;;;;25.63;5.30;;;;;;;;;;5057079;28;20450;-83
2023/12/10 03:03:31;;;;;;;26.65;5.28;;;;;;;;;;5073229;28;20548;-82
2023/12/10 03:05:58;;;;;;;25.58;5.13;;;;;;;;;;5087183;28;20900;-81
2023/12/10 03:08:24;;;;;;;25.17;4.63;;;;;;;;;;5071854;28;20482;-82
2023/12/10 03:10:50;;;;;;;25.85;5.55;;;;;;;;;;5055611;28;20407;-81
2023/12/10 03:13:16;;;;;;;32.17;5.40;;;;;;;;;;5090287;28;20467;-82
2023/12/10 03:15:42;;;;;;;27.38;5.10;;;;;;;;;;5056868;28;20413;-81
2023/12/10 03:18:08;;;;;;;32.72;5.50;;;;;;;;;;5073233;28;20470;-82
2023/12/10 03:20:34;;;;;;;29.77;5.07;;;;;;;;;;5056855;28;20406;-82
2023/12/10 03:23:02;;;;;;;28.05;5.40;;;;;;;;;;5056899;28;20419;-81
2023/12/10 03:25:28;;;;;;;25.67;4.40;;;;;;;;;;5074585;28;20498;-82
2023/12/10 03:27:54;;;;;;;25.27;4.85;;;;;;;;;;5039883;28;20491;-81
2023/12/10 03:30:21;;;;;;;25.73;4.20;;;;;;;;;;5039496;28;20416;-81
2023/12/10 03:32:47;;;;;;;23.67;4.65;;;;;;;;;;5073016;28;20404;-81
2023/12/10 03:35:13;;;;;;;22.90;4.30;;;;;;;;;;5039953;28;20490;-81
2023/12/10 03:37:39;;;;;;;18.02;3.92;;;;;;;;;;5059466;28;20447;-81
2023/12/10 03:40:05;;;;;;;21.35;3.60;;;;;;;;;;5056026;28;20820;-82
2023/12/10 03:42:31;;;;;;;18.83;3.67;;;;;;;;;;5055037;28;20761;-81
2023/12/10 03:44:57;;;;;;;18.05;3.70;;;;;;;;;;5056055;28;20478;-81
2023/12/10 03:47:23;;;;;;;17.58;3.83;;;;;;;;;;5072439;28;20404;-81
2023/12/10 03:49:49;;;;;;;16.45;3.25;;;;;;;;;;5055910;28;20767;-76
2023/12/10 03:52:15;;;;;;;10.77;2.80;;;;;;;;;;5077079;28;20404;-76
2023/12/10 03:54:42;;;;;;;17.92;3.10;;;;;;;;;;5055474;28;20400;-77
2023/12/10 03:57:08;;;;;;;14.73;3.77;;;;;;;;;;5071146;28;20467;-77
2023/12/10 03:59:34;;;;;;;13.20;3.28;;;;;;;;;;5055220;28;20512;-82
2023/12/10 04:02:00;;;;;;;14.00;3.08;;;;;;;;;;5082296;28;20410;-76
2023/12/10 04:04:26;;;;;;;14.43;3.17;;;;;;;;;;5093929;28;20481;-77
2023/12/10 04:06:52;;;;;;;12.02;2.72;;;;;;;;;;5071245;28;20396;-76
2023/12/10 04:09:18;;;;;;;12.57;3.33;;;;;;;;;;5072608;28;20404;-76
2023/12/10 04:11:44;;;;;;;16.75;3.40;;;;;;;;;;5071206;28;20399;-77
2023/12/10 04:14:11;;;;;;;21.13;3.50;;;;;;;;;;5070446;28;20431;-76
2023/12/10 04:16:37;;;;;;;17.10;4.00;;;;;;;;;;5054827;28;20400;-76
2023/12/10 04:19:04;;;;;;;22.60;4.07;;;;;;;;;;5086885;28;20423;-81
2023/12/10 04:21:30;;;;;;;21.60;3.95;;;;;;;;;;5072256;28;20751;-80
2023/12/10 04:23:56;;;;;;;22.67;4.07;;;;;;;;;;5071973;28;20408;-80
2023/12/10 04:26:22;;;;;;;22.07;4.20;;;;;;;;;;5072225;28;20486;-80
2023/12/10 04:28:49;;;;;;;17.73;3.78;;;;;;;;;;5071783;28;20416;-80
2023/12/10 04:31:16;;;;;;;20.92;4.20;;;;;;;;;;5070355;28;20971;-79
2023/12/10 04:33:44;;;;;;;21.17;4.63;;;;;;;;;;5074118;28;20802;-80
2023/12/10 04:36:11;;;;;;;23.27;4.60;;;;;;;;;;5048746;28;20430;-81
2023/12/10 04:38:37;;;;;;;17.10;3.75;;;;;;;;;;5054968;28;20949;-81
2023/12/10 04:41:04;;;;;;;17.90;4.20;;;;;;;;;;5120120;27;20913;-81
2023/12/10 04:43:30;;;;;;;26.42;4.90;;;;;;;;;;5061929;28;20460;-81
2023/12/10 04:45:56;;;;;;;22.33;4.70;;;;;;;;;;5094116;28;20422;-81
2023/12/10 04:48:22;;;;;;;20.57;4.60;;;;;;;;;;5070178;28;20938;-80
2023/12/10 04:50:48;;;;;;;24.15;5.20;;;;;;;;;;5071603;28;20436;-80
2023/12/10 04:53:14;;;;;;;31.70;5.35;;;;;;;;;;5071472;28;20410;-80
2023/12/10 04:55:40;;;;;;;26.30;5.13;;;;;;;;;;5070936;28;20418;-81
2023/12/10 04:58:07;;;;;;;25.70;5.50;;;;;;;;;;5053731;28;20435;-81
2023/12/10 05:00:33;;;;;;;25.95;6.00;;;;;;;;;;5104626;28;20411;-80
2023/12/10 05:02:59;;;;;;;35.58;5.95;;;;;;;;;;5068913;28;20515;-75
2023/12/10 05:05:25;;;;;;;26.33;5.95;;;;;;;;;;5071428;28;20875;-76
2023/12/10 05:07:51;;;;;;;30.15;5.80;;;;;;;;;;5054248;28;20827;-77
2023/12/10 05:10:17;;;;;;;28.00;5.95;;;;;;;;;;5070819;28;20609;-77
2023/12/10 05:12:44;;;;;;;23.13;4.80;;;;;;;;;;5087224;28;20427;-74
2023/12/10 05:15:10;;;;;;;20.70;4.75;;;;;;;;;;5053952;28;20407;-76
2023/12/10 05:17:36;;;;;;;22.15;4.90;;;;;;;;;;5067656;28;20503;-76
2023/12/10 05:20:05;;;;;;;21.37;5.07;;;;;;;;;;5070610;28;20404;-76
2023/12/10 05:22:31;;;;;;;23.77;5.17;;;;;;;;;;5103861;28;20477;-76
2023/12/10 05:24:57;;;;;;;25.02;4.88;;;;;;;;;;5070686;28;20439;-76
2023/12/10 05:27:23;;;;;;;19.92;4.65;;;;;;;;;;5070560;28;20400;-76
2023/12/10 05:29:50;;;;;;;21.50;5.18;;;;;;;;;;5071204;28;20404;-76
2023/12/10 05:32:16;;;;;;;22.17;4.68;;;;;;;;;;5070364;28;20411;-76
2023/12/10 05:34:42;;;;;;;22.33;4.63;;;;;;;;;;5069355;28;20422;-76
2023/12/10 05:37:08;;;;;;;22.75;4.32;;;;;;;;;;5069850;28;20483;-76
2023/12/10 05:39:34;;;;;;;24.35;4.82;;;;;;;;;;5054024;28;20419;-80
2023/12/10 05:42:00;;;;;;;22.98;5.00;;;;;;;;;;5054034;28;20411;-80
2023/12/10 05:44:27;;;;;;;21.53;4.80;;;;;;;;;;5070190;28;20449;-80
2023/12/10 05:46:53;;;;;;;21.13;4.88;;;;;;;;;;5070039;28;20400;-80
2023/12/10 05:49:19;;;;;;;23.60;4.30;;;;;;;;;;5023506;28;20409;-80
2023/12/10 05:51:45;;;;;;;20.13;4.07;;;;;;;;;;5062699;28;20420;-80
2023/12/10 05:54:12;;;;;;;24.67;4.70;;;;;;;;;;5086827;28;20791;-80
2023/12/10 05:56:38;;;;;;;17.33;3.30;;;;;;;;;;5087069;28;20439;-80
2023/12/10 05:59:04;;;;;;;1.75;0.68;;;;;;;;;;5068868;28;20499;-80
2023/12/10 06:01:30;;;;;;;0.10;0.10;;;;;;;;;;5052781;28;20412;-79
2023/12/10 06:03:57;;;;;;;0.40;0.40;;;;;;;;;;5070232;28;20403;-79
2023/12/10 06:06:23;;;;;;;0.10;0.10;;;;;;;;;;5069031;28;20416;-79
2023/12/10 06:08:49;;;;;;;0.10;0.10;;;;;;;;;;5053106;28;20959;-79
2023/12/10 06:11:15;;;;;;;0.10;0.10;;;;;;;;;;5069798;28;20729;-79
2023/12/10 06:13:41;;;;;;;0.20;0.20;;;;;;;;;;5053706;28;20416;-79
2023/12/10 06:16:07;;;;;;;0.10;0.10;;;;;;;;;;5070138;28;20403;-79
2023/12/10 06:18:34;;;;;;;0.10;0.10;;;;;;;;;;5083599;28;20481;-79
2023/12/10 06:21:00;;;;;;;0.30;0.30;;;;;;;;;;5090344;28;20673;-79
2023/12/10 06:23:26;;;;;;;0.30;0.30;;;;;;;;;;5087432;28;20447;-79
2023/12/10 06:25:52;;;;;;;0.13;0.13;;;;;;;;;;5053691;28;20412;-79
2023/12/10 06:28:18;;;;;;;0.70;0.70;;;;;;;;;;5070762;28;20732;-80
2023/12/10 06:30:44;;;;;;;0.03;0.03;;;;;;;;;;5070709;28;20408;-79
2023/12/10 06:33:10;;;;;;;0.08;0.08;;;;;;;;;;5070431;28;20705;-80
2023/12/10 06:35:36;;;;;;;0.10;0.10;;;;;;;;;;5070619;28;20431;-79
2023/12/10 06:38:02;;;;;;;0.52;0.32;;;;;;;;;;5069503;28;20428;-79
2023/12/10 06:40:28;;;;;;;0.90;0.28;;;;;;;;;;5070527;28;20882;-79
2023/12/10 06:42:54;;;;;;;0.15;0.15;;;;;;;;;;5086825;28;20402;-79
2023/12/10 06:45:21;;;;;;;0.10;0.10;;;;;;;;;;5053550;28;20918;-79
2023/12/10 06:47:47;;;;;;;0.10;0.10;;;;;;;;;;5053908;28;20407;-79
2023/12/10 06:50:13;;;;;;;0.10;0.10;;;;;;;;;;5086809;28;20403;-80
2023/12/10 06:52:39;;;;;;;0.00;0.00;;;;;;;;;;5069559;28;20483;-80
2023/12/10 06:55:05;;;;;;;0.00;0.00;;;;;;;;;;5069746;28;20759;-79
2023/12/10 06:57:31;;;;;;;0.50;0.50;;;;;;;;;;5048717;28;20912;-80
2023/12/10 06:59:57;;;;;;;0.20;0.20;;;;;;;;;;5079438;28;20407;-80
2023/12/10 07:02:23;;;;;;;0.40;0.40;;;;;;;;;;5070417;28;20450;-80
2023/12/10 07:04:49;;;;;;;0.10;0.10;;;;;;;;;;5072942;28;20884;-80
2023/12/10 07:07:15;;;;;;;0.10;0.10;;;;;;;;;;5056347;28;20426;-80
2023/12/10 07:09:41;;;;;;;0.10;0.10;;;;;;;;;;5070046;28;20414;-81
2023/12/10 07:12:07;;;;;;;0.20;0.20;;;;;;;;;;5068751;28;20480;-80
2023/12/10 07:14:33;;;;;;;0.10;0.10;;;;;;;;;;5069937;28;20498;-80
2023/12/10 07:17:00;;;;;;;0.10;0.10;;;;;;;;;;5069662;28;20403;-80
2023/12/10 07:19:26;;;;;;;0.30;0.30;;;;;;;;;;5071170;28;20411;-80
2023/12/10 07:21:52;;;;;;;1.10;1.00;;;;;;;;;;5069820;28;20570;-80
2023/12/10 07:24:22;;;;;;;0.10;0.10;;;;;;;;;;5053020;28;20441;-77
2023/12/10 07:26:48;;;;;;;0.10;0.10;;;;;;;;;;5070438;28;20415;-76
2023/12/10 07:29:14;;;;;;;0.10;0.10;;;;;;;;;;5084840;28;20457;-76
2023/12/10 07:31:40;;;;;;;0.10;0.10;;;;;;;;;;5032369;28;20421;-75
2023/12/10 07:34:06;;;;;;;0.10;0.10;;;;;;;;;;5083664;28;20407;-76
2023/12/10 07:36:32;;;;;;;1.15;0.35;;;;;;;;;;5055834;28;20408;-76
2023/12/10 07:38:59;;;;;;;0.30;0.30;;;;;;;;;;5072815;28;20426;-76
2023/12/10 07:41:25;;;;;;;0.25;0.25;;;;;;;;;;5073219;28;20491;-75
2023/12/10 07:43:51;;;;;;;1.30;0.30;;;;;;;;;;5056318;28;20404;-76
2023/12/10 07:46:17;;;;;;;0.40;0.40;;;;;;;;;;5086970;28;20495;-75
2023/12/10 07:48:43;;;;;;;0.28;0.28;;;;;;;;;;5066674;28;20449;-75
2023/12/10 07:51:09;;;;;;;0.40;0.40;;;;;;;;;;5062184;28;20404;-76
2023/12/10 07:53:35;;;;;;;0.80;0.80;;;;;;;;;;5072975;28;20469;-76
2023/12/10 07:56:01;;;;;;;0.20;0.20;;;;;;;;;;5105795;28;20490;-74
2023/12/10 07:58:27;;;;;;;0.10;0.10;;;;;;;;;;5072399;28;20863;-77
2023/12/10 08:00:54;;;;;;;4.45;0.45;;;;;;;;;;5059820;28;20423;-76
2023/12/10 08:03:20;;;;;;;0.20;0.20;;;;;;;;;;5083230;28;20423;-76
2023/12/10 08:05:46;;;;;;;1.10;0.40;;;;;;;;;;5078068;28;20425;-77
2023/12/10 08:08:12;;;;;;;0.20;0.20;;;;;;;;;;5054628;28;20974;-76
2023/12/10 08:10:38;;;;;;;1.50;0.40;;;;;;;;;;5055833;28;20403;-76
2023/12/10 08:13:04;;;;;;;1.30;0.60;;;;;;;;;;5072173;28;20415;-77
2023/12/10 08:15:31;;;;;;;1.20;0.70;;;;;;;;;;5054337;28;20407;-76
2023/12/10 08:17:57;;;;;;;0.10;0.10;;;;;;;;;;5054849;28;20555;-76
2023/12/10 08:20:23;;;;;;;0.10;0.10;;;;;;;;;;5054368;28;20431;-76
2023/12/10 08:22:49;;;;;;;0.10;0.10;;;;;;;;;;5072031;28;20406;-76
2023/12/10 08:25:15;;;;;;;0.20;0.20;;;;;;;;;;5038430;28;20526;-76
2023/12/10 08:27:43;;;;;;;0.30;0.30;;;;;;;;;;5051513;28;20399;-76
2023/12/10 08:30:09;;;;;;;0.20;0.20;;;;;;;;;;5070990;28;20462;-76
2023/12/10 08:32:35;;;;;;;0.90;0.80;;;;;;;;;;5071933;28;20403;-76
2023/12/10 08:35:02;;;;;;;0.38;0.32;;;;;;;;;;5071219;28;20759;-76
2023/12/10 08:37:28;;;;;;;6.10;0.30;;;;;;;;;;5070388;28;20424;-76
2023/12/10 08:39:54;;;;;;;1.30;0.70;;;;;;;;;;5074098;28;20755;-76
2023/12/10 08:42:21;;;;;;;0.80;0.60;;;;;;;;;;5088581;28;20402;-76
2023/12/10 08:44:47;;;;;;;0.10;0.10;;;;;;;;;;5072844;28;20874;-76
2023/12/10 08:47:13;;;;;;;0.70;0.70;;;;;;;;;;5053780;28;20400;-76
2023/12/10 08:49:39;;;;;;;0.50;0.40;;;;;;;;;;5071680;28;20895;-76
2023/12/10 08:52:05;;;;;;;1.80;0.40;;;;;;;;;;5071364;28;20969;-76
2023/12/10 08:54:31;;;;;;;0.30;0.30;;;;;;;;;;5053689;28;20509;-76
2023/12/10 08:56:58;;;;;;;0.47;0.43;;;;;;;;;;5072480;28;20415;-76
2023/12/10 08:59:24;;;;;;;1.00;0.65;;;;;;;;;;5072251;28;20423;-76
2023/12/10 09:01:50;;;;;;;1.20;1.20;;;;;;;;;;5070819;28;20414;-76
2023/12/10 09:04:18;;;;;;;0.60;0.60;;;;;;;;;;5077657;28;20426;-76
2023/12/10 09:06:44;;;;;;;0.10;0.10;;;;;;;;;;5070499;28;20400;-77
2023/12/10 09:09:10;;;;;;;3.40;0.70;;;;;;;;;;5086291;28;20427;-76
2023/12/10 09:11:36;;;;;;;1.00;0.37;;;;;;;;;;5071551;28;20435;-76
2023/12/10 09:14:02;;;;;;;1.15;1.15;;;;;;;;;;5069638;28;20407;-75
2023/12/10 09:16:28;;;;;;;0.20;0.20;;;;;;;;;;5085658;28;20927;-76
2023/12/10 09:18:54;;;;;;;0.68;0.68;;;;;;;;;;5071450;28;20428;-76
2023/12/10 09:21:21;;;;;;;1.27;1.08;;;;;;;;;;5071759;28;20507;-76
2023/12/10 09:23:47;;;;;;;1.10;0.63;;;;;;;;;;5054244;28;20406;-76
2023/12/10 09:26:13;;;;;;;0.13;0.13;;;;;;;;;;5069749;28;20895;-76
2023/12/10 09:28:39;;;;;;;0.10;0.10;;;;;;;;;;5070431;28;20407;-76
2023/12/10 09:31:05;;;;;;;0.50;0.50;;;;;;;;;;5049731;28;20464;-77
2023/12/10 09:33:31;;;;;;;0.10;0.10;;;;;;;;;;5084996;28;20518;-76
2023/12/10 09:35:58;;;;;;;2.90;1.00;;;;;;;;;;5069159;28;20438;-76
2023/12/10 09:38:24;;;;;;;0.20;0.20;;;;;;;;;;5069052;28;20424;-76
2023/12/10 09:40:50;;;;;;;0.17;0.17;;;;;;;;;;5058222;28;20429;-76
2023/12/10 09:43:16;;;;;;;0.13;0.13;;;;;;;;;;5070607;28;20404;-76
2023/12/10 09:45:42;;;;;;;0.30;0.30;;;;;;;;;;5071686;28;20419;-82
2023/12/10 09:48:08;;;;;;;0.50;0.50;;;;;;;;;;5070277;28;20423;-81
2023/12/10 09:50:40;;;;;;;0.68;0.68;;;;;;;;;;5088224;28;20396;-81
2023/12/10 09:53:09;;;;;;;0.20;0.20;;;;;;;;;;5087439;28;20444;-81
2023/12/10 09:55:35;;;;;;;0.10;0.10;;;;;;;;;;5054350;28;20407;-81
2023/12/10 09:58:02;;;;;;;0.10;0.10;;;;;;;;;;5070007;28;20427;-81
2023/12/10 10:00:29;;;;;;;0.10;0.10;;;;;;;;;;5070549;28;20427;-81
2023/12/10 10:03:01;;;;;;;0.10;0.10;;;;;;;;;;5070068;28;20756;-82
2023/12/10 10:05:28;;;;;;;0.32;0.32;;;;;;;;;;5086582;28;20435;-82
2023/12/10 10:07:54;;;;;;;0.20;0.20;;;;;;;;;;5070196;28;20407;-81
2023/12/10 10:10:22;;;;;;;0.30;0.30;;;;;;;;;;5084943;28;20423;-81
2023/12/10 10:12:48;;;;;;;0.63;0.63;;;;;;;;;;5116081;27;20404;-82
2023/12/10 10:15:15;;;;;;;0.28;0.28;;;;;;;;;;5058108;28;20404;-79
2023/12/10 10:17:43;;;;;;;0.50;0.40;;;;;;;;;;5051166;28;20526;-81
2023/12/10 10:20:09;;;;;;;9.40;0.50;;;;;;;;;;5070693;28;20396;-81
2023/12/10 10:22:36;;;;;;;0.60;0.60;;;;;;;;;;5069624;28;20453;-76
2023/12/10 10:25:03;;;;;;;1.92;0.82;;;;;;;;;;5084954;28;20434;-76
2023/12/10 10:27:31;;;;;;;0.20;0.20;;;;;;;;;;5070169;28;20417;-76
2023/12/10 10:29:58;;;;;;;1.00;1.00;;;;;;;;;;5070658;28;20914;-76
2023/12/10 10:32:24;;;;;;;0.90;0.85;;;;;;;;;;5087234;28;20454;-76
2023/12/10 10:34:51;;;;;;;1.33;0.93;;;;;;;;;;5072946;28;20415;-76
2023/12/10 10:37:17;;;;;;;0.10;0.10;;;;;;;;;;5086041;28;20437;-76
2023/12/10 10:39:50;;;;;;;0.80;0.60;;;;;;;;;;5084100;28;20427;-81
2023/12/10 10:42:19;;;;;;;0.20;0.20;;;;;;;;;;5083656;28;20405;-75
2023/12/10 10:44:46;;;;;;;0.90;0.50;;;;;;;;;;5085396;28;20460;-80
2023/12/10 10:47:12;;;;;;;0.90;0.90;;;;;;;;;;5070184;28;20884;-80
2023/12/10 10:49:47;;;;;;;0.40;0.40;;;;;;;;;;5071035;28;20729;-80
2023/12/10 10:52:16;;;;;;;0.20;0.20;;;;;;;;;;5052672;28;20404;-80
2023/12/10 10:54:43;;;;;;;0.20;0.20;;;;;;;;;;5053342;28;20408;-80
2023/12/10 10:57:09;;;;;;;0.38;0.38;;;;;;;;;;5069198;28;20400;-80
2023/12/10 10:59:35;;;;;;;0.10;0.10;;;;;;;;;;5068991;28;20906;-80
2023/12/10 11:02:02;;;;;;;2.40;0.80;;;;;;;;;;5070338;28;20435;-81
2023/12/10 11:04:41;;;;;;;0.30;0.30;;;;;;;;;;5070009;28;20741;-75
2023/12/10 11:07:07;;;;;;;0.20;0.20;;;;;;;;;;5053137;28;20512;-75
2023/12/10 11:09:52;;;;;;;0.95;0.75;;;;;;;;;;5052424;28;20408;-80
2023/12/10 11:12:37;;;;;;;0.28;0.28;;;;;;;;;;5063798;28;20408;-79
2023/12/10 11:15:05;;;;;;;0.80;0.80;;;;;;;;;;5062954;28;20416;-75
2023/12/10 11:17:31;;;;;;;0.73;0.70;;;;;;;;;;5070835;28;20866;-76
2023/12/10 11:20:00;;;;;;;0.10;0.10;;;;;;;;;;5108396;27;20458;-76
2023/12/10 11:22:26;;;;;;;0.20;0.20;;;;;;;;;;5054038;28;20499;-75
2023/12/10 11:24:54;;;;;;;0.30;0.30;;;;;;;;;;5057980;28;20790;-76
2023/12/10 11:27:20;;;;;;;1.23;1.13;;;;;;;;;;5071587;28;20515;-75
2023/12/10 11:29:46;;;;;;;2.60;0.30;;;;;;;;;;5073190;28;20433;-75
2023/12/10 11:32:12;;;;;;;0.30;0.30;;;;;;;;;;5039299;28;20419;-75
2023/12/10 11:34:38;;;;;;;2.40;1.23;;;;;;;;;;5070961;28;20403;-76
2023/12/10 11:37:04;;;;;;;1.60;1.20;;;;;;;;;;5072017;28;20432;-75
2023/12/10 11:39:30;;;;;;;0.45;0.45;;;;;;;;;;5059629;28;20764;-80
2023/12/10 11:41:56;;;;;;;0.10;0.10;;;;;;;;;;5061601;28;20556;-75
2023/12/10 11:44:22;;;;;;;0.45;0.40;;;;;;;;;;5072165;28;20478;-80
2023/12/10 11:46:48;;;;;;;1.30;0.90;;;;;;;;;;5072603;28;20779;-76
2023/12/10 11:49:14;;;;;;;2.30;1.50;;;;;;;;;;5055067;28;20404;-75
2023/12/10 11:51:41;;;;;;;0.80;0.80;;;;;;;;;;5082602;28;20415;-75
2023/12/10 11:54:08;;;;;;;0.80;0.50;;;;;;;;;;5056907;28;20482;-76
2023/12/10 11:56:34;;;;;;;0.10;0.10;;;;;;;;;;5073213;28;20442;-80
2023/12/10 11:59:02;;;;;;;0.35;0.35;;;;;;;;;;5073659;28;20446;-79
2023/12/10 12:01:28;;;;;;;0.47;0.47;;;;;;;;;;5070263;28;20420;-80
2023/12/10 12:03:54;;;;;;;0.15;0.15;;;;;;;;;;5083698;28;20436;-80
2023/12/10 12:06:20;;;;;;;3.15;0.50;;;;;;;;;;5073425;28;20404;-80
2023/12/10 12:08:47;;;;;;;0.70;0.50;;;;;;;;;;5057031;28;20464;-80
2023/12/10 12:11:13;;;;;;;0.22;0.22;;;;;;;;;;5090516;28;20415;-80
2023/12/10 12:13:39;;;;;;;4.57;3.25;;;;;;;;;;5056679;28;20406;-76
2023/12/10 12:16:06;;;;;;;0.20;0.20;;;;;;;;;;5088147;28;20408;-76
2023/12/10 12:18:32;;;;;;;1.50;0.25;;;;;;;;;;5072100;28;20431;-76
2023/12/10 12:20:58;;;;;;;0.60;0.50;;;;;;;;;;5061703;28;20494;-76
2023/12/10 12:23:24;;;;;;;0.35;0.35;;;;;;;;;;5072614;28;20422;-75
2023/12/10 12:25:50;;;;;;;0.80;0.50;;;;;;;;;;5089014;28;20399;-75
2023/12/10 12:28:16;;;;;;;0.55;0.55;;;;;;;;;;5071024;28;20461;-80
2023/12/10 12:30:43;;;;;;;0.28;0.28;;;;;;;;;;5074199;28;20420;-80
2023/12/10 12:33:09;;;;;;;0.80;0.80;;;;;;;;;;5090684;28;20451;-79
2023/12/10 12:35:35;;;;;;;33.83;6.03;;;;;;;;;;5088626;28;20923;-76
2023/12/10 12:38:01;;;;;;;34.28;6.55;;;;;;;;;;5053563;28;20459;-75
2023/12/10 12:40:27;;;;;;;33.30;5.97;;;;;;;;;;5081858;28;20393;-80
2023/12/10 12:42:53;;;;;;;39.77;6.20;;;;;;;;;;5053157;28;20480;-80
2023/12/10 12:45:19;;;;;;;34.47;6.10;;;;;;;;;;5056032;28;20473;-79
2023/12/10 12:47:47;;;;;;;35.30;6.80;;;;;;;;;;5072219;28;22293;-75
2023/12/10 12:50:13;;;;;;;36.53;6.45;;;;;;;;;;5074827;28;20413;-74
2023/12/10 12:52:39;;;;;;;26.27;5.82;;;;;;;;;;5079887;28;20479;-79
2023/12/10 12:55:06;;;;;;;29.85;5.55;;;;;;;;;;5072643;28;20922;-80
2023/12/10 12:57:32;;;;;;;27.00;5.22;;;;;;;;;;5052224;28;20412;-80
2023/12/10 12:59:58;;;;;;;31.02;5.90;;;;;;;;;;5049060;28;20500;-80
2023/12/10 13:02:24;;;;;;;30.35;5.32;;;;;;;;;;5086745;28;20414;-80
2023/12/10 13:04:50;;;;;;;25.23;5.07;;;;;;;;;;5086619;28;20741;-74
2023/12/10 13:07:17;;;;;;;28.52;5.82;;;;;;;;;;5079804;28;20410;-75
2023/12/10 13:09:43;;;;;;;28.93;5.17;;;;;;;;;;5067663;28;20433;-76
2023/12/10 13:12:09;;;;;;;28.48;5.43;;;;;;;;;;5036335;28;20498;-76
2023/12/10 13:14:35;;;;;;;24.90;5.13;;;;;;;;;;5081165;28;20455;-76
2023/12/10 13:17:04;;;;;;;25.33;4.80;;;;;;;;;;5069862;28;20403;-80
2023/12/10 13:19:30;;;;;;;27.50;4.82;;;;;;;;;;5071072;28;20424;-80
2023/12/10 13:21:56;;;;;;;27.20;5.35;;;;;;;;;;5083695;28;20411;-76
2023/12/10 13:24:22;;;;;;;25.25;4.75;;;;;;;;;;5103633;27;20942;-76
2023/12/10 13:26:48;;;;;;;24.70;5.45;;;;;;;;;;5087197;28;20542;-75
2023/12/10 13:29:14;;;;;;;21.57;4.73;;;;;;;;;;5062991;28;20436;-80
2023/12/10 13:31:40;;;;;;;23.63;4.30;;;;;;;;;;5071708;28;20437;-75
2023/12/10 13:34:07;;;;;;;25.70;5.33;;;;;;;;;;5066291;28;20593;-80
2023/12/10 13:36:33;;;;;;;23.92;4.47;;;;;;;;;;5071367;28;20469;-75
2023/12/10 13:38:59;;;;;;;25.07;4.30;;;;;;;;;;5069836;28;20424;-76
2023/12/10 13:41:25;;;;;;;22.45;4.90;;;;;;;;;;5069428;28;20424;-76
2023/12/10 13:43:51;;;;;;;23.02;4.50;;;;;;;;;;5069390;28;20400;-76
2023/12/10 13:46:18;;;;;;;20.40;3.83;;;;;;;;;;5054166;28;20510;-81
2023/12/10 13:48:44;;;;;;;23.02;4.88;;;;;;;;;;5071310;28;20403;-81
2023/12/10 13:51:11;;;;;;;16.98;3.42;;;;;;;;;;5052316;28;20907;-80
2023/12/10 13:53:37;;;;;;;25.65;4.65;;;;;;;;;;5066331;28;20427;-80
2023/12/10 13:56:03;;;;;;;21.75;4.50;;;;;;;;;;5049693;28;20414;-76
2023/12/10 13:58:29;;;;;;;22.10;4.53;;;;;;;;;;5071129;28;20476;-76
2023/12/10 14:00:56;;;;;;;22.23;3.97;;;;;;;;;;5086684;28;20404;-80
2023/12/10 14:03:22;;;;;;;17.02;3.60;;;;;;;;;;5084936;28;20431;-80
2023/12/10 14:05:49;;;;;;;18.45;4.55;;;;;;;;;;5069372;28;20425;-80
2023/12/10 14:08:15;;;;;;;21.40;3.83;;;;;;;;;;5086748;28;20761;-76
2023/12/10 14:10:41;;;;;;;22.92;4.20;;;;;;;;;;5075567;28;20402;-76
2023/12/10 14:13:07;;;;;;;22.77;4.30;;;;;;;;;;5078298;28;20451;-80
2023/12/10 14:15:33;;;;;;;20.60;3.88;;;;;;;;;;5085105;28;20396;-76
2023/12/10 14:18:00;;;;;;;20.43;3.67;;;;;;;;;;5072841;28;20975;-80
2023/12/10 14:20:26;;;;;;;15.43;3.73;;;;;;;;;;5069377;28;20400;-77
2023/12/10 14:22:52;;;;;;;20.50;4.00;;;;;;;;;;5066070;28;20489;-77
2023/12/10 14:25:18;;;;;;;19.80;3.33;;;;;;;;;;5075630;28;20407;-80
2023/12/10 14:27:46;;;;;;;19.92;3.60;;;;;;;;;;5052647;28;20428;-76
2023/12/10 14:30:13;;;;;;;19.80;3.80;;;;;;;;;;5067482;28;20490;-76